KPTD

Potsdam Municipal / Damon Field / Airport

Potsdam, New York, USA
METAR KPTD 170555Z AUTO 20008G18KT 10SM SCT055 OVC070 08/03 A2982 RMK AO2
Observed Flight Rules
Oct-17 @ 05:55 UTC (16 minutes ago) Visual Flight Rules
Wind Visibility Clouds
200° at 8 knots
 Gusting to 18 knots
10 miles
  • Scattered at 5,500' AGL
  • Overcast at 7,000' AGL
Temperatures Readings
Current 8°C / 46°F
Dewpoint 3°C / 37°F
Humidity 71%
Altimeter 29.82" Hg
Pressure 1010 hPa
Elevation 144
METAR KPTD 170555Z AUTO 20008G18KT 10SM SCT055 OVC070 08/03 A2982 RMK AO2
Observed Flight Rules
Oct-17 @ 05:55 UTC
(16 minutes ago)
VFR
Wind Visibility
200° at 8 knots
 Gusting to 18 knots
10 miles
Clouds
  • Scattered at 5,500' AGL
  • Overcast at 7,000' AGL
Temperature Dewpoint
8°C / 46°F 3°C / 37°F
Humidity Altimeter Pressure
71% 29.82" Hg 1010 hPa